createdAt,value
2022-11-21T00:00:48.077Z,94726.1
2022-11-21T00:01:50.469Z,94717
2022-11-21T00:02:52.742Z,94718.8
2022-11-21T00:03:54.665Z,94714.8
2022-11-21T00:04:57.152Z,94723.7
2022-11-21T00:05:59.632Z,94726.8
2022-11-21T00:07:01.540Z,94732.9
2022-11-21T00:08:03.024Z,94727.1
2022-11-21T00:09:05.228Z,94723.7
2022-11-21T00:10:07.704Z,94728.6
2022-11-21T00:11:10.190Z,94730
2022-11-21T00:12:12.663Z,94731.9
2022-11-21T00:13:14.865Z,94727.1
2022-11-21T00:14:17.065Z,94734.4
2022-11-21T00:15:19.302Z,94730.9
2022-11-21T00:16:21.782Z,94733.5
2022-11-21T00:17:24.274Z,94730.2
2022-11-21T00:18:25.925Z,94735.5
2022-11-21T00:19:28.416Z,94737.8
2022-11-21T00:20:30.353Z,94738.8
2022-11-21T00:21:32.289Z,94732.5
2022-11-21T00:22:34.201Z,94731.6
2022-11-21T00:23:36.417Z,94737.2
2022-11-21T00:24:38.628Z,94735.7
2022-11-21T00:25:40.844Z,94736.8
2022-11-21T00:26:43.315Z,94732.3
2022-11-21T00:27:45.803Z,94731.5
2022-11-21T00:28:48.269Z,94729.8
2022-11-21T00:29:50.761Z,94726.3
2022-11-21T00:30:53.238Z,94728.9
2022-11-21T00:31:55.726Z,94733.2
2022-11-21T00:32:57.923Z,94730
2022-11-21T00:34:00.124Z,94734.3
2022-11-21T00:35:02.606Z,94732.2
2022-11-21T00:36:05.088Z,94730.1
2022-11-21T00:37:07.592Z,94732.1
2022-11-21T00:38:09.802Z,94730.1
2022-11-21T00:39:12.012Z,94733.4
2022-11-21T00:40:14.511Z,94730.9
2022-11-21T00:41:16.995Z,94729.9
2022-11-21T00:42:19.204Z,94728.6
2022-11-21T00:43:21.743Z,94723.3
2022-11-21T00:44:23.972Z,94716.8
2022-11-21T00:45:26.861Z,94716.8
2022-11-21T00:46:28.801Z,94712.8
2022-11-21T00:47:31.008Z,94712.2
2022-11-21T00:48:33.535Z,94710.5
2022-11-21T00:49:36.009Z,94712.8
2022-11-21T00:50:38.553Z,94706.3
2022-11-21T00:51:41.035Z,94709.3
2022-11-21T00:52:43.500Z,94712.4
2022-11-21T00:53:45.687Z,94708.1
2022-11-21T00:54:48.175Z,94703.7
2022-11-21T00:55:50.667Z,94713.4
2022-11-21T00:56:52.858Z,94706.7
2022-11-21T00:57:55.366Z,94707.5
2022-11-21T00:58:57.838Z,94709.1
2022-11-21T00:59:59.752Z,94711.9
2022-11-21T01:01:02.331Z,94713.2
2022-11-21T01:02:04.345Z,94707.7
2022-11-21T01:03:06.529Z,94708.8
2022-11-21T01:04:08.733Z,94709.9
2022-11-21T01:05:11.200Z,94713.1
2022-11-21T01:06:13.402Z,94711.7
2022-11-21T01:07:16.343Z,94706.9
2022-11-21T01:08:18.961Z,94707.9
2022-11-21T01:09:21.467Z,94714.4
2022-11-21T01:10:23.953Z,94713.9
2022-11-21T01:11:26.433Z,94711
2022-11-21T01:12:28.996Z,94712.1
2022-11-21T01:13:31.211Z,94703.4
2022-11-21T01:14:33.692Z,94710
2022-11-21T01:15:36.183Z,94710.8
2022-11-21T01:16:38.700Z,94712.5
2022-11-21T01:17:40.599Z,94715
2022-11-21T01:18:42.798Z,94713.7
2022-11-21T01:19:45.264Z,94707.8
2022-11-21T01:20:46.906Z,94708.2
2022-11-21T01:21:49.098Z,94710.3
2022-11-21T01:22:51.598Z,94711.1
2022-11-21T01:23:53.829Z,94715.9
2022-11-21T01:24:56.323Z,94716.9
2022-11-21T01:25:58.794Z,94713.9
2022-11-21T01:27:01.003Z,94715.6
2022-11-21T01:28:03.601Z,94709.6
2022-11-21T01:29:05.824Z,94711.4
2022-11-21T01:30:07.460Z,94707
2022-11-21T01:31:09.947Z,94708.2
2022-11-21T01:32:12.418Z,94704.8
2022-11-21T01:33:14.892Z,94707.6
2022-11-21T01:34:17.373Z,94701.5
2022-11-21T01:35:19.845Z,94702.6
2022-11-21T01:36:22.053Z,94704.9
2022-11-21T01:37:24.545Z,94703.1
2022-11-21T01:38:26.484Z,94704.7
2022-11-21T01:39:28.677Z,94706.2
2022-11-21T01:40:31.165Z,94704.7
2022-11-21T01:41:33.353Z,94705.2
2022-11-21T01:42:35.941Z,94706.2
2022-11-21T01:43:38.533Z,94710.3
2022-11-21T01:44:40.773Z,94716
2022-11-21T01:45:43.239Z,94714.6
2022-11-21T01:46:45.713Z,94706.5
2022-11-21T01:47:48.220Z,94701.1
2022-11-21T01:48:50.431Z,94703.8
2022-11-21T01:49:52.632Z,94697.4
2022-11-21T01:50:55.114Z,94697.4
2022-11-21T01:51:57.584Z,94693.2
2022-11-21T01:52:59.797Z,94691.9
2022-11-21T01:54:01.995Z,94687.7
2022-11-21T01:55:04.474Z,94691.1
2022-11-21T01:56:06.117Z,94688.1
2022-11-21T01:57:08.609Z,94693.2
2022-11-21T01:58:11.076Z,94687.2
2022-11-21T01:59:13.643Z,94687.4
2022-11-21T02:00:16.129Z,94681.6
2022-11-21T02:01:18.648Z,94683.1
2022-11-21T02:02:21.226Z,94679.5
2022-11-21T02:03:23.699Z,94680.2
2022-11-21T02:04:26.980Z,94679.6
2022-11-21T02:05:29.278Z,94674.3
2022-11-21T02:06:31.191Z,94672.7
2022-11-21T02:07:33.917Z,94666.4
2022-11-21T02:08:35.704Z,94672.8
2022-11-21T02:09:38.173Z,94664.2
2022-11-21T02:10:40.651Z,94660.4
2022-11-21T02:11:43.128Z,94668.1
2022-11-21T02:12:45.343Z,94661.1
2022-11-21T02:13:47.556Z,94657.8
2022-11-21T02:14:50.121Z,94662.9
2022-11-21T02:15:52.614Z,94658.6
2022-11-21T02:16:54.807Z,94660.3
2022-11-21T02:17:57.016Z,94659.8
2022-11-21T02:18:59.218Z,94658.1
2022-11-21T02:20:01.151Z,94658.5
2022-11-21T02:21:03.339Z,94663.6
2022-11-21T02:22:05.535Z,94656.5
2022-11-21T02:23:07.725Z,94654.7
2022-11-21T02:24:09.934Z,94661.4
2022-11-21T02:25:12.410Z,94647.9
2022-11-21T02:26:14.622Z,94654.7
2022-11-21T02:27:16.837Z,94653.3
2022-11-21T02:28:19.320Z,94646.1
2022-11-21T02:29:21.890Z,94642.7
2022-11-21T02:30:24.450Z,94646.5
2022-11-21T02:31:26.948Z,94644.5
2022-11-21T02:32:29.424Z,94645.1
2022-11-21T02:33:31.928Z,94640.8
2022-11-21T02:34:34.420Z,94643.4
2022-11-21T02:35:36.907Z,94638.6
2022-11-21T02:36:39.379Z,94640.1
2022-11-21T02:37:41.295Z,94635.4
2022-11-21T02:38:43.790Z,94635.8
2022-11-21T02:39:46.272Z,94630.1
2022-11-21T02:40:48.741Z,94633.6
2022-11-21T02:41:51.223Z,94631.7
2022-11-21T02:42:54.464Z,94635.9
2022-11-21T02:43:56.949Z,94634.1
2022-11-21T02:44:59.448Z,94634.9
2022-11-21T02:46:02.036Z,94626.9
2022-11-21T02:47:04.536Z,94624.8
2022-11-21T02:48:06.802Z,94625.7
2022-11-21T02:49:09.003Z,94625.4
2022-11-21T02:50:11.222Z,94625
2022-11-21T02:51:13.416Z,94623.2
2022-11-21T02:52:15.898Z,94626.9
2022-11-21T02:53:18.095Z,94628.9
2022-11-21T02:54:20.360Z,94625.3
2022-11-21T02:55:22.302Z,94628.8
2022-11-21T02:56:25.309Z,94626.7
2022-11-21T02:57:28.041Z,94628.7
2022-11-21T02:58:30.517Z,94633.5
2022-11-21T02:59:33.074Z,94630
2022-11-21T03:00:35.574Z,94622.1
2022-11-21T03:01:38.356Z,94620
2022-11-21T03:02:40.871Z,94616.7
2022-11-21T03:03:43.356Z,94614.4
2022-11-21T03:04:45.563Z,94618.7
2022-11-21T03:05:47.762Z,94614.6
2022-11-21T03:06:49.962Z,94620.1
2022-11-21T03:07:51.882Z,94625.9
2022-11-21T03:08:53.531Z,94617.5
2022-11-21T03:09:55.736Z,94621.3
2022-11-21T03:10:58.231Z,94618
2022-11-21T03:12:00.717Z,94616.9
2022-11-21T03:13:02.992Z,94617.7
2022-11-21T03:14:05.185Z,94608.1
2022-11-21T03:15:07.671Z,94609
2022-11-21T03:16:10.143Z,94602
2022-11-21T03:17:12.733Z,94597.8
2022-11-21T03:18:15.218Z,94599.5
2022-11-21T03:19:17.692Z,94606.2
2022-11-21T03:20:19.617Z,94603.5
2022-11-21T03:21:22.086Z,94602.7
2022-11-21T03:22:24.561Z,94604.6
2022-11-21T03:23:27.029Z,94600.7
2022-11-21T03:24:30.749Z,94604.9
2022-11-21T03:25:32.682Z,94602.5
2022-11-21T03:26:35.170Z,94600.9
2022-11-21T03:27:37.640Z,94598.5
2022-11-21T03:28:40.125Z,94593.5
2022-11-21T03:29:42.591Z,94586.3
2022-11-21T03:30:44.776Z,94584.2
2022-11-21T03:31:47.038Z,94587.1
2022-11-21T03:32:49.745Z,94585.7
2022-11-21T03:33:52.228Z,94583.2
2022-11-21T03:34:54.174Z,94586.3
2022-11-21T03:35:56.391Z,94586.9
2022-11-21T03:36:58.878Z,94587.5
2022-11-21T03:38:01.341Z,94581.1
2022-11-21T03:39:03.278Z,94577.4
2022-11-21T03:40:05.771Z,94578.4
2022-11-21T03:41:08.127Z,94575.1
2022-11-21T03:42:10.329Z,94580
2022-11-21T03:43:12.804Z,94580.1
2022-11-21T03:44:15.279Z,94572.8
2022-11-21T03:45:17.763Z,94576.2
2022-11-21T03:46:20.110Z,94569.6
2022-11-21T03:47:22.383Z,94569.1
2022-11-21T03:48:24.977Z,94571.4
2022-11-21T03:49:27.493Z,94573.5
2022-11-21T03:50:29.960Z,94570.2
2022-11-21T03:51:32.454Z,94567.8
2022-11-21T03:52:34.643Z,94569.4
2022-11-21T03:53:36.574Z,94569.4
2022-11-21T03:54:39.051Z,94568.4
2022-11-21T03:55:41.245Z,94564
2022-11-21T03:56:43.452Z,94568.9
2022-11-21T03:57:45.658Z,94569.8
2022-11-21T03:58:47.850Z,94569.8
2022-11-21T03:59:49.485Z,94575.2
2022-11-21T04:00:51.683Z,94573.4
2022-11-21T04:01:54.068Z,94576.5
2022-11-21T04:02:56.318Z,94576.3
2022-11-21T04:03:58.673Z,94576.4
2022-11-21T04:05:01.152Z,94575.6
2022-11-21T04:06:03.633Z,94573.9
2022-11-21T04:07:06.110Z,94577
2022-11-21T04:08:08.685Z,94576.1
2022-11-21T04:09:10.901Z,94577.5
2022-11-21T04:10:13.383Z,94577.3
2022-11-21T04:11:15.896Z,94570.2
2022-11-21T04:12:17.810Z,94572
2022-11-21T04:13:20.296Z,94565
2022-11-21T04:14:22.231Z,94563.6
2022-11-21T04:15:24.705Z,94568.6
2022-11-21T04:16:27.176Z,94567.3
2022-11-21T04:17:29.667Z,94563.8
2022-11-21T04:18:32.144Z,94558
2022-11-21T04:19:34.413Z,94564.8
2022-11-21T04:20:36.624Z,94563.3
2022-11-21T04:21:38.555Z,94561.3
2022-11-21T04:22:41.021Z,94561.3
2022-11-21T04:23:43.205Z,94569.2
2022-11-21T04:24:45.404Z,94564.4
2022-11-21T04:25:47.880Z,94562.4
2022-11-21T04:26:50.352Z,94567.5
2022-11-21T04:27:52.562Z,94567.1
2022-11-21T04:28:54.759Z,94565.5
2022-11-21T04:29:56.947Z,94569
2022-11-21T04:32:04.402Z,94567.2
2022-11-21T04:33:06.592Z,94561
2022-11-21T04:34:08.812Z,94568.6
2022-11-21T04:35:11.382Z,94559.1
2022-11-21T04:36:13.930Z,94569
2022-11-21T04:37:16.696Z,94559.2
2022-11-21T04:38:19.256Z,94559.6
2022-11-21T04:39:21.473Z,94563.6
2022-11-21T04:40:23.944Z,94569.1
2022-11-21T04:41:26.148Z,94561.4
2022-11-21T04:42:28.348Z,94555.7
2022-11-21T04:43:30.965Z,94551.4
2022-11-21T04:44:33.242Z,94551.8
2022-11-21T04:45:35.490Z,94547.5
2022-11-21T04:46:37.990Z,94542.5
2022-11-21T04:47:40.192Z,94548.7
2022-11-21T04:48:42.680Z,94545.9
2022-11-21T04:49:45.173Z,94543.3
2022-11-21T04:50:47.917Z,94549.5
2022-11-21T04:51:50.539Z,94544.1
2022-11-21T04:52:52.760Z,94539.2
2022-11-21T04:53:55.262Z,94536
2022-11-21T04:54:57.739Z,94536.3
2022-11-21T04:55:59.951Z,94528.6
2022-11-21T04:57:02.428Z,94533.9
2022-11-21T04:58:04.357Z,94518.5
2022-11-21T04:59:06.831Z,94515.2
2022-11-21T05:00:09.337Z,94521
2022-11-21T05:01:12.211Z,94517
2022-11-21T05:02:14.610Z,94517.3
2022-11-21T05:03:17.087Z,94509.1
2022-11-21T05:04:18.756Z,94505.2
2022-11-21T05:05:21.158Z,94509.5
2022-11-21T05:06:23.772Z,94504.6
2022-11-21T05:07:26.185Z,94503.6
2022-11-21T05:08:28.733Z,94504
2022-11-21T05:09:30.649Z,94511.9
2022-11-21T05:10:33.130Z,94507
2022-11-21T05:11:35.601Z,94506.1
2022-11-21T05:12:38.081Z,94500.3
2022-11-21T05:13:40.553Z,94505.8
2022-11-21T05:14:43.041Z,94499.4
2022-11-21T05:15:45.532Z,94496.5
2022-11-21T05:16:48.024Z,94505.4
2022-11-21T05:17:50.230Z,94501.1
2022-11-21T05:18:52.716Z,94505.4
2022-11-21T05:19:54.655Z,94500.6
2022-11-21T05:20:56.865Z,94511
2022-11-21T05:21:59.422Z,94502.8
2022-11-21T05:23:02.017Z,94505.6
2022-11-21T05:24:04.498Z,94507.3
2022-11-21T05:25:06.986Z,94500
2022-11-21T05:26:09.468Z,94498.5
2022-11-21T05:27:11.969Z,94503.3
2022-11-21T05:28:14.450Z,94501.9
2022-11-21T05:29:16.937Z,94503.1
2022-11-21T05:30:19.195Z,94504.5
2022-11-21T05:31:21.690Z,94507.3
2022-11-21T05:32:24.182Z,94507
2022-11-21T05:33:26.368Z,94507.3
2022-11-21T05:34:30.439Z,94505.3
2022-11-21T05:35:32.969Z,94500.5
2022-11-21T05:36:35.453Z,94502.1
2022-11-21T05:37:37.738Z,94504
2022-11-21T05:38:40.024Z,94501.3
2022-11-21T05:39:42.231Z,94503.1
2022-11-21T05:40:44.453Z,94505
2022-11-21T05:41:46.927Z,94500.3
2022-11-21T05:42:49.150Z,94505.4
2022-11-21T05:43:51.615Z,94504
2022-11-21T05:44:54.112Z,94502.6
2022-11-21T05:45:56.577Z,94500
2022-11-21T05:46:58.814Z,94500.5
2022-11-21T05:48:00.714Z,94504.1
2022-11-21T05:49:02.918Z,94503.9
2022-11-21T05:50:05.396Z,94503.8
2022-11-21T05:51:07.875Z,94505.9
2022-11-21T05:52:09.819Z,94509.9
2022-11-21T05:53:12.133Z,94509.5
2022-11-21T05:54:14.648Z,94509.4
2022-11-21T05:55:17.314Z,94509.7
2022-11-21T05:56:19.605Z,94509.8
2022-11-21T05:57:21.820Z,94502.9
2022-11-21T05:58:24.022Z,94508
2022-11-21T05:59:26.230Z,94504.3
2022-11-21T06:00:28.712Z,94511.2
2022-11-21T06:01:31.220Z,94508.9
2022-11-21T06:02:33.821Z,94516.4
2022-11-21T06:03:36.122Z,94518.4
2022-11-21T06:04:38.320Z,94512.3
2022-11-21T06:05:40.254Z,94517.8
2022-11-21T06:06:42.428Z,94517.3
2022-11-21T06:07:45.352Z,94518.1
2022-11-21T06:08:48.031Z,94520.9
2022-11-21T06:09:50.533Z,94522.1
2022-11-21T06:10:52.762Z,94523.9
2022-11-21T06:11:55.100Z,94518.4
2022-11-21T06:12:57.003Z,94523.9
2022-11-21T06:13:59.198Z,94528.2
2022-11-21T06:15:01.137Z,94522.4
2022-11-21T06:16:03.655Z,94523.8
2022-11-21T06:17:06.132Z,94522.5
2022-11-21T06:18:08.602Z,94530.4
2022-11-21T06:19:11.103Z,94525.2
2022-11-21T06:20:13.587Z,94531.5
2022-11-21T06:21:15.800Z,94528.8
2022-11-21T06:22:18.017Z,94529.6
2022-11-21T06:23:20.535Z,94532
2022-11-21T06:24:24.082Z,94534.5
2022-11-21T06:25:26.582Z,94531.9
2022-11-21T06:26:29.052Z,94533.7
2022-11-21T06:27:31.537Z,94533.5
2022-11-21T06:28:33.773Z,94534.7
2022-11-21T06:29:36.247Z,94537.8
2022-11-21T06:30:38.441Z,94536.9
2022-11-21T06:31:40.939Z,94531.2
2022-11-21T06:32:43.393Z,94537.3
2022-11-21T06:33:45.927Z,94527.5
2022-11-21T06:34:48.126Z,94535.2
2022-11-21T06:35:50.066Z,94531.4
2022-11-21T06:36:52.253Z,94538
2022-11-21T06:37:54.791Z,94528.2
2022-11-21T06:38:56.982Z,94540
2022-11-21T06:39:59.683Z,94534.6
2022-11-21T06:41:02.302Z,94541.3
2022-11-21T06:42:04.808Z,94543
2022-11-21T06:43:07.075Z,94547.2
2022-11-21T06:44:09.561Z,94545.3
2022-11-21T06:45:11.486Z,94548.6
2022-11-21T06:46:13.674Z,94545.5
2022-11-21T06:47:15.624Z,94555.6
2022-11-21T06:48:18.100Z,94559
2022-11-21T06:49:20.611Z,94556.3
2022-11-21T06:50:22.543Z,94565.5
2022-11-21T06:51:25.053Z,94564.4
2022-11-21T06:52:27.568Z,94566.9
2022-11-21T06:53:29.784Z,94565.3
2022-11-21T06:54:33.708Z,94565.5
2022-11-21T06:55:36.819Z,94565
2022-11-21T06:56:39.038Z,94565.4
2022-11-21T06:57:40.946Z,94569
2022-11-21T06:58:43.141Z,94570.2
2022-11-21T06:59:45.342Z,94565.6
2022-11-21T07:00:47.529Z,94562.1
2022-11-21T07:01:49.561Z,94564.2
2022-11-21T07:02:51.941Z,94566.4
2022-11-21T07:03:54.155Z,94564.6
2022-11-21T07:04:56.657Z,94568.5
2022-11-21T07:05:58.890Z,94568.1
2022-11-21T07:07:01.297Z,94569.7
2022-11-21T07:08:03.646Z,94568.4
2022-11-21T07:10:15.035Z,94574.3
2022-11-21T07:12:22.573Z,94575.2
2022-11-21T07:13:25.102Z,94576.1
2022-11-21T07:14:27.040Z,94583.5
2022-11-21T07:15:28.975Z,94586.5
2022-11-21T07:16:31.161Z,94585.8
2022-11-21T07:17:33.373Z,94584.7
2022-11-21T07:18:35.555Z,94592.3
2022-11-21T07:20:42.420Z,94585.6
2022-11-21T07:21:44.658Z,94596.5
2022-11-21T07:22:46.909Z,94590
2022-11-21T07:23:49.150Z,94590.8
2022-11-21T07:24:51.639Z,94594.5
2022-11-21T07:25:53.857Z,94594.7
2022-11-21T07:26:56.366Z,94598.2
2022-11-21T07:27:58.950Z,94598
2022-11-21T07:29:01.477Z,94599.5
2022-11-21T07:30:03.727Z,94597.6
2022-11-21T07:32:11.195Z,94598
2022-11-21T07:33:13.109Z,94602.8
2022-11-21T07:34:15.043Z,94599.5
2022-11-21T07:35:17.256Z,94603.5
2022-11-21T07:36:19.460Z,94605.1
2022-11-21T07:37:21.696Z,94607.3
2022-11-21T07:38:24.174Z,94605.2
2022-11-21T07:39:27.162Z,94608.1
2022-11-21T07:40:30.045Z,94611.1
2022-11-21T07:41:31.716Z,94608.5
2022-11-21T07:42:33.958Z,94608.5
2022-11-21T07:43:36.612Z,94610.5
2022-11-21T07:44:38.846Z,94607.8
2022-11-21T07:45:41.081Z,94611
2022-11-21T07:46:43.281Z,94613.2
2022-11-21T07:47:45.788Z,94607.8
2022-11-21T07:48:47.969Z,94610.7
2022-11-21T07:49:50.193Z,94605.3
2022-11-21T07:50:52.744Z,94612.5
2022-11-21T07:51:54.950Z,94613.8
2022-11-21T07:52:57.178Z,94613.5
2022-11-21T07:53:59.372Z,94613
2022-11-21T07:55:01.590Z,94609.4
2022-11-21T07:56:04.065Z,94606.5
2022-11-21T07:57:05.996Z,94610.6
2022-11-21T07:58:08.221Z,94608.3
2022-11-21T07:59:10.782Z,94603.9
2022-11-21T08:00:13.019Z,94607.3
2022-11-21T08:01:15.558Z,94610
2022-11-21T08:02:18.239Z,94606.3
2022-11-21T08:03:19.889Z,94612.3
2022-11-21T08:04:21.834Z,94617.6
2022-11-21T08:05:23.756Z,94614
2022-11-21T08:06:25.994Z,94607.6
2022-11-21T08:07:28.748Z,94611.4
2022-11-21T08:08:31.037Z,94614
2022-11-21T08:10:37.978Z,94613.3
2022-11-21T08:11:40.242Z,94618.2
2022-11-21T08:12:42.446Z,94620.4
2022-11-21T08:13:45.011Z,94616.5
2022-11-21T08:14:47.572Z,94625.2
2022-11-21T08:15:50.079Z,94624.2
2022-11-21T08:16:52.574Z,94622.1
2022-11-21T08:17:54.800Z,94622.6
2022-11-21T08:18:57.013Z,94617.8
2022-11-21T08:19:59.228Z,94623.2
2022-11-21T08:21:01.706Z,94619.7
2022-11-21T08:22:04.196Z,94624.2
2022-11-21T08:23:06.166Z,94624.4
2022-11-21T08:24:08.375Z,94623.8
2022-11-21T08:25:10.304Z,94621.7
2022-11-21T08:26:12.522Z,94621
2022-11-21T08:27:14.480Z,94627.9
2022-11-21T08:28:16.703Z,94629.7
2022-11-21T08:29:18.912Z,94630.2
2022-11-21T08:30:21.528Z,94626.5
2022-11-21T08:31:24.036Z,94631.8
2022-11-21T08:32:26.237Z,94626.6
2022-11-21T08:33:28.185Z,94624.2
2022-11-21T08:34:30.406Z,94624.2
2022-11-21T08:35:32.948Z,94632.8
2022-11-21T08:36:35.426Z,94625.8
2022-11-21T08:37:37.638Z,94621.2
2022-11-21T08:38:39.575Z,94623.4
2022-11-21T08:39:41.503Z,94614.5
2022-11-21T08:40:43.718Z,94617.4
2022-11-21T08:41:45.369Z,94615.9
2022-11-21T08:42:47.878Z,94620.3
2022-11-21T08:43:50.363Z,94618.2
2022-11-21T08:44:52.588Z,94615.1
2022-11-21T08:45:54.874Z,94616.3
2022-11-21T08:46:57.368Z,94615.5
2022-11-21T08:47:59.599Z,94619.4
2022-11-21T08:49:02.110Z,94614.1
2022-11-21T08:51:09.309Z,94624.2
2022-11-21T08:52:11.792Z,94623.3
2022-11-21T08:53:14.281Z,94617.4
2022-11-21T08:54:16.514Z,94616.9
2022-11-21T08:55:19.011Z,94608.4
2022-11-21T08:56:21.505Z,94615.4
2022-11-21T08:57:23.982Z,94614.5
2022-11-21T08:58:26.465Z,94613.3
2022-11-21T08:59:28.669Z,94611
2022-11-21T09:00:30.620Z,94614
2022-11-21T09:01:33.157Z,94616.3
2022-11-21T09:02:35.799Z,94613.8
2022-11-21T09:03:38.024Z,94611.5
2022-11-21T09:04:40.527Z,94614
2022-11-21T09:05:42.741Z,94613.8
2022-11-21T09:06:44.966Z,94611
2022-11-21T09:07:49.397Z,94608.9
2022-11-21T09:08:51.723Z,94607.2
2022-11-21T09:09:54.208Z,94611.8
2022-11-21T09:10:56.430Z,94610.7
2022-11-21T09:11:58.361Z,94611.5
2022-11-21T09:13:00.621Z,94611.4
2022-11-21T09:14:03.101Z,94613.9
2022-11-21T09:15:05.619Z,94614.9
2022-11-21T09:16:07.852Z,94608.4
2022-11-21T09:17:10.168Z,94611.7
2022-11-21T09:18:12.671Z,94614.6
2022-11-21T09:19:15.166Z,94613.6
2022-11-21T09:20:17.843Z,94609.6
2022-11-21T09:21:20.393Z,94613.3
2022-11-21T09:22:22.308Z,94618.8
2022-11-21T09:23:24.516Z,94613.6
2022-11-21T09:24:27.003Z,94616.1
2022-11-21T09:25:28.923Z,94606.8
2022-11-21T09:26:31.123Z,94614.3
2022-11-21T09:27:33.625Z,94611.3
2022-11-21T09:28:35.846Z,94616.9
2022-11-21T09:29:38.332Z,94608.5
2022-11-21T09:30:40.549Z,94605.4
2022-11-21T09:31:42.505Z,94614
2022-11-21T09:32:45.102Z,94607.4
2022-11-21T09:34:52.600Z,94606.4
2022-11-21T09:35:54.859Z,94598.1
2022-11-21T09:36:57.356Z,94602.1
2022-11-21T09:37:59.567Z,94602.1
2022-11-21T09:39:01.491Z,94600.9
2022-11-21T09:40:04.913Z,94600.4
2022-11-21T09:41:06.854Z,94599.9
2022-11-21T09:42:09.065Z,94601.2
2022-11-21T09:43:11.258Z,94603.4
2022-11-21T09:44:13.467Z,94599.5
2022-11-21T09:45:15.753Z,94605.3
2022-11-21T09:46:17.416Z,94601
2022-11-21T09:47:19.947Z,94596.5
2022-11-21T09:48:22.342Z,94591.8
2022-11-21T09:49:25.071Z,94601.2
2022-11-21T09:50:28.052Z,94595.5
2022-11-21T09:51:30.245Z,94594.9
2022-11-21T09:52:32.747Z,94597.1
2022-11-21T09:53:34.670Z,94601.4
2022-11-21T09:54:37.153Z,94598.1
2022-11-21T09:55:39.360Z,94596
2022-11-21T09:56:41.845Z,94596.4
2022-11-21T09:57:43.484Z,94598.6
2022-11-21T09:58:47.069Z,94599.5
2022-11-21T09:59:49.351Z,94595.6
2022-11-21T10:00:51.899Z,94593.4
2022-11-21T10:01:53.941Z,94588.1
2022-11-21T10:02:56.460Z,94593.1
2022-11-21T10:03:59.015Z,94586.2
2022-11-21T10:05:01.263Z,94586.9
2022-11-21T10:06:03.565Z,94590.4
2022-11-21T10:07:05.845Z,94590.7
2022-11-21T10:08:07.932Z,94590.4
2022-11-21T10:09:10.425Z,94589.7
2022-11-21T10:10:12.623Z,94584.5
2022-11-21T10:12:19.808Z,94586.8
2022-11-21T10:13:22.293Z,94585.7
2022-11-21T10:14:24.245Z,94580.6
2022-11-21T10:15:26.483Z,94580.4
2022-11-21T10:16:28.688Z,94579.6
2022-11-21T10:17:31.212Z,94580.1
2022-11-21T10:18:33.448Z,94580.1
2022-11-21T10:19:36.001Z,94576.7
2022-11-21T10:20:38.494Z,94573.9
2022-11-21T10:21:40.721Z,94571.5
2022-11-21T10:22:42.905Z,94571.1
2022-11-21T10:23:45.138Z,94571
2022-11-21T10:24:47.352Z,94560.9
2022-11-21T10:25:49.266Z,94562.2
2022-11-21T10:26:51.757Z,94558.6
2022-11-21T10:27:54.262Z,94554.2
2022-11-21T10:28:56.748Z,94545.2
2022-11-21T10:29:59.267Z,94540.1
2022-11-21T10:31:01.750Z,94540.4
2022-11-21T10:32:03.965Z,94544
2022-11-21T10:33:06.188Z,94546.4
2022-11-21T10:34:08.171Z,94544.9
2022-11-21T10:35:10.731Z,94534.4
2022-11-21T10:36:13.251Z,94538.5
2022-11-21T10:37:15.482Z,94538
2022-11-21T10:38:17.964Z,94532
2022-11-21T10:39:20.179Z,94534.3
2022-11-21T10:40:21.845Z,94536.1
2022-11-21T10:41:24.331Z,94535.9
2022-11-21T10:42:26.875Z,94534.6
2022-11-21T10:43:29.370Z,94531.9
2022-11-21T10:44:31.776Z,94535.8
2022-11-21T10:45:33.708Z,94535
2022-11-21T10:46:36.224Z,94534.1
2022-11-21T10:47:38.455Z,94526.7
2022-11-21T10:48:40.657Z,94525.5
2022-11-21T10:49:42.861Z,94525
2022-11-21T10:50:45.426Z,94529.1
2022-11-21T10:51:48.453Z,94528.8
2022-11-21T10:52:50.667Z,94532.9
2022-11-21T10:53:52.881Z,94535.5
2022-11-21T10:54:55.387Z,94531.5
2022-11-21T10:55:57.332Z,94534.8
2022-11-21T10:56:58.989Z,94529.3
2022-11-21T10:58:00.701Z,94528
2022-11-21T10:59:02.643Z,94527.6
2022-11-21T11:00:05.133Z,94527
2022-11-21T11:01:07.652Z,94526.5
2022-11-21T11:02:09.998Z,94526.3
2022-11-21T11:03:12.259Z,94524.6
2022-11-21T11:05:19.769Z,94518.3
2022-11-21T11:06:22.074Z,94514
2022-11-21T11:07:24.823Z,94512.5
2022-11-21T11:08:27.464Z,94511.8
2022-11-21T11:09:29.407Z,94511.3
2022-11-21T11:10:31.916Z,94511.9
2022-11-21T11:11:34.398Z,94508.5
2022-11-21T11:12:36.913Z,94506.6
2022-11-21T11:14:44.157Z,94495.3
2022-11-21T11:15:46.675Z,94493.1
2022-11-21T11:16:48.917Z,94493.7
2022-11-21T11:17:51.411Z,94489.4
2022-11-21T11:18:53.908Z,94490.2
2022-11-21T11:19:56.122Z,94486.7
2022-11-21T11:20:59.636Z,94485.5
2022-11-21T11:22:02.208Z,94488.3
2022-11-21T11:23:04.480Z,94482
2022-11-21T11:24:06.967Z,94484.1
2022-11-21T11:25:08.616Z,94481.9
2022-11-21T11:26:11.137Z,94480.2
2022-11-21T11:27:13.032Z,94477.3
2022-11-21T11:28:15.235Z,94472.5
2022-11-21T11:29:17.477Z,94469
2022-11-21T11:30:19.708Z,94468.2
2022-11-21T11:31:22.204Z,94471.8
2022-11-21T11:32:24.751Z,94465.5
2022-11-21T11:33:26.969Z,94463.9
2022-11-21T11:34:29.191Z,94464.5
2022-11-21T11:35:31.402Z,94461.5
2022-11-21T11:36:33.397Z,94464.4
2022-11-21T11:38:40.712Z,94455.4
2022-11-21T11:39:42.993Z,94457.7
2022-11-21T11:40:44.916Z,94455.3
2022-11-21T11:41:48.648Z,94455.2
2022-11-21T11:42:50.846Z,94451.3
2022-11-21T11:43:53.095Z,94452.1
2022-11-21T11:44:55.006Z,94453.1
2022-11-21T11:45:57.491Z,94452.6
2022-11-21T11:46:59.963Z,94452.8
2022-11-21T11:48:02.469Z,94456.3
2022-11-21T11:50:09.969Z,94456.2
2022-11-21T11:51:11.916Z,94454.1
2022-11-21T11:52:14.432Z,94450.2
2022-11-21T11:53:16.671Z,94450.9
2022-11-21T11:54:19.264Z,94449.4
2022-11-21T11:55:21.488Z,94449.7
2022-11-21T11:56:23.972Z,94444
2022-11-21T11:57:26.185Z,94446.2
2022-11-21T11:58:28.115Z,94444.8
2022-11-21T11:59:31.990Z,94444.1
2022-11-21T12:00:33.939Z,94441.5
2022-11-21T12:01:36.185Z,94442.6
2022-11-21T12:02:38.663Z,94442.6
2022-11-21T12:03:40.726Z,94439.5
2022-11-21T12:04:43.201Z,94440.1
2022-11-21T12:05:45.423Z,94437.7
2022-11-21T12:08:59.301Z,94435.8
2022-11-21T12:10:01.985Z,94435.4
2022-11-21T12:11:04.220Z,94433
2022-11-21T12:12:06.429Z,94431.6
2022-11-21T12:13:08.368Z,94424.7
2022-11-21T12:14:10.582Z,94424
2022-11-21T12:15:12.807Z,94415.6
2022-11-21T12:16:15.820Z,94412.1
2022-11-21T12:17:18.295Z,94408.2
2022-11-21T12:18:20.559Z,94406.2
2022-11-21T12:19:23.136Z,94403
2022-11-21T12:20:25.386Z,94400.9
2022-11-21T12:21:27.871Z,94395.4
2022-11-21T12:22:30.087Z,94396.8
2022-11-21T12:23:32.594Z,94394.7
2022-11-21T12:25:39.834Z,94391.4
2022-11-21T12:26:42.374Z,94388.6
2022-11-21T12:27:44.869Z,94381.2
2022-11-21T12:28:48.183Z,94379.9
2022-11-21T12:29:50.369Z,94377.4
2022-11-21T12:30:52.872Z,94373.9
2022-11-21T12:31:55.101Z,94365
2022-11-21T12:32:57.348Z,94366.8
2022-11-21T12:34:04.043Z,94368.8
2022-11-21T12:35:06.236Z,94362.5
2022-11-21T12:37:13.415Z,94360
2022-11-21T12:38:15.912Z,94361
2022-11-21T12:39:18.133Z,94353
2022-11-21T12:40:20.356Z,94356.9
2022-11-21T12:41:22.927Z,94357.8
2022-11-21T12:42:25.547Z,94363.1
2022-11-21T12:43:27.185Z,94353.2
2022-11-21T12:44:29.672Z,94349.9
2022-11-21T12:45:31.597Z,94354.8
2022-11-21T12:46:33.819Z,94353
2022-11-21T12:47:36.003Z,94351.6
2022-11-21T12:48:37.980Z,94353
2022-11-21T12:49:40.250Z,94352.4
2022-11-21T12:50:42.746Z,94346.5
2022-11-21T12:51:46.249Z,94343.1
2022-11-21T12:52:48.471Z,94340.5
2022-11-21T12:53:50.416Z,94343
2022-11-21T12:54:52.630Z,94341.8
2022-11-21T12:55:54.567Z,94342.2
2022-11-21T12:56:56.958Z,94342.4
2022-11-21T12:57:59.473Z,94342.1